• Join FlightAware (Why Join?)
  • Login
  • US Flag 
07:19AM EDT


 

Airport Tracker/Info


-or-


 

Live Flight TrackerFlight Track Log ✈ VH-OZH ✈ 12-Jul-2013 ✈ YLTT - YBCG / OOL

Flight Track Log - Related Links

Times and Time Zones

All times are in EDT time to prevent confusion due to time zone crossing. See the VH-OZH flight status page for this flight to view local times or setup timezone preferences in your user account.

Time Position Orientation Groundspeed Altitude Reporting Facility
EDT Latitude Longitude Course Direction KTS MPH feet Rate Location/Type
01:12AM -25.4209 153.0000 167° South 156 180 9,600  Level Aus ATC (RADAR)
01:12AM -25.4452 153.0060 167° South 153 176 9,700 60 Climbing Aus ATC (RADAR)
01:13AM -25.4834 153.0149 168° South 153 176 9,700  Level Aus ATC (RADAR)
01:14AM -25.5082 153.0181 173° South 154 177 9,700  Level Aus ATC (RADAR)
01:16AM -25.5812 153.0327 170° South 152 175 9,700  Level Aus ATC (RADAR)
01:16AM -25.6054 153.0379 169° South 151 174 9,700  Level Aus ATC (RADAR)
01:17AM -25.6404 153.0448 170° South 153 176 9,700  Level Aus ATC (RADAR)
01:18AM -25.6719 153.0506 170° South 153 176 9,700  Level Aus ATC (RADAR)
01:18AM -25.6966 153.0567 168° South 156 180 9,700  Level Aus ATC (RADAR)
01:19AM -25.7314 153.0654 167° South 154 177 9,700  Level Aus ATC (RADAR)
01:20AM -25.7770 153.0740 170° South 152 175 9,700  Level Aus ATC (RADAR)
01:21AM -25.8017 153.0798 168° South 154 177 9,700  Level Aus ATC (RADAR)
01:22AM -25.8258 153.0842 171° South 151 174 9,700  Level Aus ATC (RADAR)
01:22AM -25.8571 153.0915 168° South 153 176 9,700  Level Aus ATC (RADAR)
01:23AM -25.8783 153.0946 172° South 153 176 9,700  Level Aus ATC (RADAR)
01:24AM -25.9338 153.1047 171° South 150 173 9,700  Level Aus ATC (RADAR)
01:25AM -25.9569 153.1092 170° South 146 168 9,700  Level Aus ATC (RADAR)
01:26AM -26.0021 153.1191 169° South 154 177 9,700  Level Aus ATC (RADAR)
01:27AM -26.0480 153.1283 170° South 156 180 9,700  Level Aus ATC (RADAR)
01:27AM -26.0733 153.1334 170° South 158 182 9,700  Level Aus ATC (RADAR)
01:28AM -26.0982 153.1398 167° South 157 181 9,700  Level Aus ATC (RADAR)
01:29AM -26.1308 153.1451 172° South 157 181 9,700  Level Aus ATC (RADAR)
01:30AM -26.1726 153.1550 168° South 152 175 9,700  Level Aus ATC (RADAR)
01:31AM -26.2208 153.1634 171° South 150 173 9,700  Level Aus ATC (RADAR)
01:31AM -26.2408 153.1683 168° South 147 169 9,700  Level Aus ATC (RADAR)
01:32AM -26.2647 153.1743 167° South 151 174 9,700  Level Aus ATC (RADAR)
01:33AM -26.2951 153.1844 163° South 150 173 9,700  Level Aus ATC (RADAR)
01:33AM -26.3193 153.1899 168° South 152 175 9,700  Level Aus ATC (RADAR)
01:34AM -26.3534 153.1979 168° South 150 173 9,700  Level Aus ATC (RADAR)
01:35AM -26.3944 153.2058 170° South 150 173 9,700  Level Aus ATC (RADAR)
01:36AM -26.4323 153.2136 170° South 153 176 9,700  Level Aus ATC (RADAR)
01:37AM -26.4726 153.2213 170° South 147 169 9,700  Level Aus ATC (RADAR)
01:38AM -26.4958 153.2272 167° South 146 168 9,700  Level Aus ATC (RADAR)
01:38AM -26.5193 153.2306 173° South 145 167 9,700 -120 Level Aus ATC (RADAR)
01:39AM -26.5533 153.2375 170° South 149 171 9,600  Descending Aus ATC (RADAR)
01:40AM -26.5938 153.2470 168° South 149 171 9,700  Climbing Aus ATC (RADAR)
01:41AM -26.6375 153.2553 170° South 145 167 9,700  Level Aus ATC (RADAR)
01:42AM -26.6710 153.2640 167° South 147 169 9,700  Level Aus ATC (RADAR)
01:43AM -26.7060 153.2704 171° South 156 180 9,700 -120 Level Aus ATC (RADAR)
01:43AM -26.7309 153.2771 167° South 154 177 9,600  Descending Aus ATC (RADAR)
01:44AM -26.7606 153.2879 162° South 151 174 9,700  Climbing Aus ATC (RADAR)
01:45AM -26.8032 153.2984 168° South 159 183 9,700  Level Aus ATC (RADAR)
01:47AM -26.8681 153.3102 171° South 158 182 9,700  Level Aus ATC (RADAR)
01:47AM -26.9042 153.3145 174° South 156 180 9,700  Level Aus ATC (RADAR)
01:48AM -26.9296 153.3194 170° South 158 182 9,700  Level Aus ATC (RADAR)
01:49AM -26.9588 153.3251 170° South 159 183 9,700  Level Aus ATC (RADAR)
01:49AM -26.9915 153.3314 170° South 159 183 9,700  Level Aus ATC (RADAR)
01:50AM -27.0346 153.3400 170° South 157 181 9,700  Level Aus ATC (RADAR)
01:51AM -27.0704 153.3484 168° South 157 181 9,700  Level Aus ATC (RADAR)
01:52AM -27.1063 153.3556 170° South 157 181 9,700  Level Aus ATC (RADAR)
01:53AM -27.1422 153.3628 170° South 157 181 9,700 -180 Level Aus ATC (RADAR)
01:54AM -27.1681 153.3661 174° South 160 184 9,500 -120 Descending Aus ATC (RADAR)
01:54AM -27.2082 153.3724 172° South 157 181 9,600  Climbing Aus ATC (RADAR)
01:55AM -27.2474 153.3776 173° South 155 178 9,600  Level Aus ATC (RADAR)
01:56AM -27.2937 153.3833 174° South 153 176 9,600  Level Aus ATC (RADAR)
01:57AM -27.3321 153.3890 173° South 152 175 9,600 -60 Level Aus ATC (RADAR)
01:58AM -27.3632 153.3927 174° South 150 173 9,500 -420 Descending Aus ATC (RADAR)
01:59AM -27.3890 153.3968 172° South 160 184 9,100 -600 Descending Aus ATC (RADAR)
01:59AM -27.4233 153.4002 175° South 164 189 8,700 -540 Descending Aus ATC (RADAR)
02:01AM -27.4733 153.4061 174° South 168 193 8,200 -480 Descending Aus ATC (RADAR)
02:02AM -27.5240 153.4125 174° South 169 194 7,700 -540 Descending Aus ATC (RADAR)
02:03AM -27.5674 153.4182 173° South 170 196 7,200 -540 Descending Aus ATC (RADAR)
02:03AM -27.5984 153.4217 174° South 166 191 6,900 -540 Descending Aus ATC (RADAR)
02:04AM -27.6243 153.4255 173° South 161 185 6,600 -540 Descending Aus ATC (RADAR)
02:05AM -27.6584 153.4298 174° South 163 188 6,200 -480 Descending Aus ATC (RADAR)
02:05AM -27.6806 153.4332 172° South 162 186 6,000 -600 Descending Aus ATC (RADAR)
02:06AM -27.7068 153.4363 174° South 161 185 5,600 -600 Descending Aus ATC (RADAR)
02:06AM -27.7444 153.4412 173° South 162 186 5,200 -600 Descending Aus ATC (RADAR)
02:07AM -27.7856 153.4468 173° South 162 186 4,600 -600 Descending Aus ATC (RADAR)
02:08AM -27.8192 153.4517 173° South 161 185 4,200 -540 Descending Aus ATC (RADAR)
02:09AM -27.8457 153.4549 174° South 162 186 3,900 -120 Descending Aus ATC (RADAR)
02:09AM -27.8766 153.4563 178° South 148 170 4,100 60 Climbing Aus ATC (RADAR)
02:10AM -27.9163 153.4589 177° South 142 163 4,100 -180 Level Aus ATC (RADAR)
02:11AM -27.9601 153.4621 176° South 148 170 3,800 -540 Descending Aus ATC (RADAR)
02:12AM -28.0008 153.4659 175° South 159 183 3,100 -720 Descending Aus ATC (RADAR)
02:13AM -28.0345 153.4690 175° South 161 185 2,600 -720 Descending Aus ATC (RADAR)
02:14AM -28.0638 153.4719 175° South 158 182 2,100 -720 Descending Aus ATC (RADAR)
02:15AM -28.0971 153.4758 174° South 160 184 1,600 -840 Descending Aus ATC (RADAR)
02:15AM -28.1356 153.4870 166° South 154 177 700 -600 Descending Aus ATC (RADAR)
02:17AM -28.1667 153.5077 150° Southeast 43 49 100 -360 Descending Aus ATC (RADAR)